sensor_id;sensor_type;location;lat;lon;timestamp;temperature;humidity
3678;DHT22;1855;50.934;6.958;2024-02-15T05:29:34;11.40;99.90
3678;DHT22;1855;50.934;6.958;2024-02-15T05:32:01;11.40;99.90
3678;DHT22;1855;50.934;6.958;2024-02-15T05:34:28;11.40;99.90
3678;DHT22;1855;50.934;6.958;2024-02-15T05:36:55;11.40;99.90
3678;DHT22;1855;50.934;6.958;2024-02-15T05:39:22;11.40;99.90
3678;DHT22;1855;50.934;6.958;2024-02-15T05:41:49;11.40;99.90
3678;DHT22;1855;50.934;6.958;2024-02-15T05:44:15;11.40;99.90
3678;DHT22;1855;50.934;6.958;2024-02-15T05:46:46;11.40;99.90
3678;DHT22;1855;50.934;6.958;2024-02-15T05:49:13;11.40;99.90
3678;DHT22;1855;50.934;6.958;2024-02-15T05:51:43;11.40;99.90
3678;DHT22;1855;50.934;6.958;2024-02-15T05:54:10;11.40;99.90
3678;DHT22;1855;50.934;6.958;2024-02-15T05:56:37;11.40;99.90
3678;DHT22;1855;50.934;6.958;2024-02-15T05:59:04;11.40;99.90
3678;DHT22;1855;50.934;6.958;2024-02-15T06:01:35;11.30;99.90
3678;DHT22;1855;50.934;6.958;2024-02-15T06:04:03;11.40;99.90
3678;DHT22;1855;50.934;6.958;2024-02-15T06:06:34;11.40;99.90
3678;DHT22;1855;50.934;6.958;2024-02-15T06:09:01;11.30;99.90
3678;DHT22;1855;50.934;6.958;2024-02-15T06:11:28;11.40;99.90
3678;DHT22;1855;50.934;6.958;2024-02-15T06:13:55;11.40;99.90
3678;DHT22;1855;50.934;6.958;2024-02-15T06:16:22;11.30;99.90
3678;DHT22;1855;50.934;6.958;2024-02-15T06:18:49;11.30;99.90
3678;DHT22;1855;50.934;6.958;2024-02-15T06:21:17;11.30;99.90
3678;DHT22;1855;50.934;6.958;2024-02-15T06:23:44;11.30;99.90
3678;DHT22;1855;50.934;6.958;2024-02-15T06:26:11;11.30;99.90
3678;DHT22;1855;50.934;6.958;2024-02-15T06:28:37;11.20;99.90
3678;DHT22;1855;50.934;6.958;2024-02-15T06:31:22;11.30;99.90
3678;DHT22;1855;50.934;6.958;2024-02-15T06:34:06;11.20;99.90
3678;DHT22;1855;50.934;6.958;2024-02-15T06:36:52;11.20;99.90
3678;DHT22;1855;50.934;6.958;2024-02-15T06:39:37;11.20;99.90
3678;DHT22;1855;50.934;6.958;2024-02-15T06:42:12;11.20;99.90
3678;DHT22;1855;50.934;6.958;2024-02-15T06:44:41;11.30;99.90
3678;DHT22;1855;50.934;6.958;2024-02-15T06:47:08;11.20;99.90
3678;DHT22;1855;50.934;6.958;2024-02-15T06:49:36;11.30;99.90
3678;DHT22;1855;50.934;6.958;2024-02-15T06:52:06;11.30;99.90
3678;DHT22;1855;50.934;6.958;2024-02-15T06:54:33;11.30;99.90
3678;DHT22;1855;50.934;6.958;2024-02-15T06:57:01;11.30;99.90
3678;DHT22;1855;50.934;6.958;2024-02-15T06:59:28;11.30;99.90
3678;DHT22;1855;50.934;6.958;2024-02-15T07:01:55;11.30;99.90
3678;DHT22;1855;50.934;6.958;2024-02-15T07:04:22;11.30;99.90
3678;DHT22;1855;50.934;6.958;2024-02-15T07:06:51;11.30;99.90
3678;DHT22;1855;50.934;6.958;2024-02-15T07:09:21;11.30;99.90
3678;DHT22;1855;50.934;6.958;2024-02-15T07:11:49;11.40;99.90
3678;DHT22;1855;50.934;6.958;2024-02-15T07:14:16;11.30;99.90
3678;DHT22;1855;50.934;6.958;2024-02-15T07:16:44;11.30;99.90
3678;DHT22;1855;50.934;6.958;2024-02-15T07:19:11;11.30;99.90
3678;DHT22;1855;50.934;6.958;2024-02-15T07:21:38;11.30;99.90
3678;DHT22;1855;50.934;6.958;2024-02-15T07:24:05;11.30;99.90
3678;DHT22;1855;50.934;6.958;2024-02-15T07:26:33;11.30;99.90
3678;DHT22;1855;50.934;6.958;2024-02-15T07:29:02;11.20;99.90
3678;DHT22;1855;50.934;6.958;2024-02-15T07:31:32;11.30;99.90
3678;DHT22;1855;50.934;6.958;2024-02-15T07:33:59;11.30;99.90
3678;DHT22;1855;50.934;6.958;2024-02-15T07:36:26;11.30;99.90
3678;DHT22;1855;50.934;6.958;2024-02-15T07:38:54;11.20;99.90
3678;DHT22;1855;50.934;6.958;2024-02-15T07:41:23;11.30;99.90
3678;DHT22;1855;50.934;6.958;2024-02-15T07:43:52;11.30;99.90
3678;DHT22;1855;50.934;6.958;2024-02-15T07:46:21;11.30;99.90
3678;DHT22;1855;50.934;6.958;2024-02-15T07:48:49;11.30;99.90
3678;DHT22;1855;50.934;6.958;2024-02-15T07:51:17;11.30;99.90
3678;DHT22;1855;50.934;6.958;2024-02-15T07:53:44;11.30;99.90
3678;DHT22;1855;50.934;6.958;2024-02-15T07:56:12;11.30;99.90
3678;DHT22;1855;50.934;6.958;2024-02-15T07:58:39;11.30;99.90
3678;DHT22;1855;50.934;6.958;2024-02-15T08:01:09;11.30;99.90
3678;DHT22;1855;50.934;6.958;2024-02-15T08:03:35;11.40;99.90
3678;DHT22;1855;50.934;6.958;2024-02-15T08:06:03;11.40;99.90
3678;DHT22;1855;50.934;6.958;2024-02-15T08:08:32;11.40;99.90
3678;DHT22;1855;50.934;6.958;2024-02-15T08:11:02;11.40;99.90
3678;DHT22;1855;50.934;6.958;2024-02-15T08:13:28;11.40;99.90
3678;DHT22;1855;50.934;6.958;2024-02-15T08:15:55;11.40;99.90
3678;DHT22;1855;50.934;6.958;2024-02-15T08:18:23;11.40;99.90
3678;DHT22;1855;50.934;6.958;2024-02-15T08:20:51;11.40;99.90
3678;DHT22;1855;50.934;6.958;2024-02-15T08:23:18;11.40;99.90
3678;DHT22;1855;50.934;6.958;2024-02-15T08:25:44;11.40;99.90
3678;DHT22;1855;50.934;6.958;2024-02-15T08:28:11;11.40;99.90
3678;DHT22;1855;50.934;6.958;2024-02-15T08:30:38;11.30;99.90
3678;DHT22;1855;50.934;6.958;2024-02-15T08:33:06;11.30;99.90
3678;DHT22;1855;50.934;6.958;2024-02-15T08:35:37;11.30;99.90
3678;DHT22;1855;50.934;6.958;2024-02-15T08:38:05;11.30;99.90
3678;DHT22;1855;50.934;6.958;2024-02-15T08:40:32;11.30;99.90
3678;DHT22;1855;50.934;6.958;2024-02-15T08:43:00;11.30;99.90
3678;DHT22;1855;50.934;6.958;2024-02-15T08:45:28;11.40;99.90
3678;DHT22;1855;50.934;6.958;2024-02-15T08:47:55;11.30;99.90
3678;DHT22;1855;50.934;6.958;2024-02-15T08:50:22;11.30;99.90
3678;DHT22;1855;50.934;6.958;2024-02-15T08:52:50;11.20;99.90
3678;DHT22;1855;50.934;6.958;2024-02-15T08:55:17;11.30;99.90
3678;DHT22;1855;50.934;6.958;2024-02-15T08:57:46;11.30;99.90
3678;DHT22;1855;50.934;6.958;2024-02-15T09:00:13;11.20;99.90
3678;DHT22;1855;50.934;6.958;2024-02-15T09:02:41;11.30;99.90
3678;DHT22;1855;50.934;6.958;2024-02-15T09:05:08;11.40;99.90
3678;DHT22;1855;50.934;6.958;2024-02-15T09:07:35;11.40;99.90
3678;DHT22;1855;50.934;6.958;2024-02-15T09:10:04;11.40;99.90
3678;DHT22;1855;50.934;6.958;2024-02-15T09:12:33;11.50;99.90
3678;DHT22;1855;50.934;6.958;2024-02-15T09:14:59;11.50;99.90
3678;DHT22;1855;50.934;6.958;2024-02-15T09:17:27;11.60;99.90
3678;DHT22;1855;50.934;6.958;2024-02-15T09:19:53;11.60;99.90
3678;DHT22;1855;50.934;6.958;2024-02-15T09:22:20;11.70;99.90
3678;DHT22;1855;50.934;6.958;2024-02-15T09:24:47;11.80;99.90
3678;DHT22;1855;50.934;6.958;2024-02-15T09:27:15;11.90;99.90
3678;DHT22;1855;50.934;6.958;2024-02-15T09:29:41;11.90;99.90
3678;DHT22;1855;50.934;6.958;2024-02-15T09:32:08;12.00;99.90
3678;DHT22;1855;50.934;6.958;2024-02-15T09:34:35;12.10;99.90
3678;DHT22;1855;50.934;6.958;2024-02-15T09:37:02;12.10;99.90
3678;DHT22;1855;50.934;6.958;2024-02-15T09:39:29;12.20;99.90
3678;DHT22;1855;50.934;6.958;2024-02-15T09:41:55;12.20;99.90
3678;DHT22;1855;50.934;6.958;2024-02-15T09:44:25;12.30;99.90
3678;DHT22;1855;50.934;6.958;2024-02-15T09:47:02;12.30;99.90
3678;DHT22;1855;50.934;6.958;2024-02-15T09:49:35;12.40;99.90
3678;DHT22;1855;50.934;6.958;2024-02-15T09:52:03;12.40;99.90
3678;DHT22;1855;50.934;6.958;2024-02-15T09:54:30;12.50;99.90
3678;DHT22;1855;50.934;6.958;2024-02-15T09:56:58;12.60;99.90
3678;DHT22;1855;50.934;6.958;2024-02-15T09:59:29;12.70;99.90
3678;DHT22;1855;50.934;6.958;2024-02-15T10:01:58;12.80;99.90
3678;DHT22;1855;50.934;6.958;2024-02-15T10:04:25;12.90;99.90
3678;DHT22;1855;50.934;6.958;2024-02-15T10:06:52;12.90;99.90
3678;DHT22;1855;50.934;6.958;2024-02-15T10:09:26;12.90;99.90
3678;DHT22;1855;50.934;6.958;2024-02-15T10:11:54;12.90;99.90
3678;DHT22;1855;50.934;6.958;2024-02-15T10:14:24;13.00;99.90
3678;DHT22;1855;50.934;6.958;2024-02-15T10:16:53;13.00;99.90
3678;DHT22;1855;50.934;6.958;2024-02-15T10:19:20;13.00;99.90
3678;DHT22;1855;50.934;6.958;2024-02-15T10:21:51;13.00;99.90
3678;DHT22;1855;50.934;6.958;2024-02-15T10:24:20;13.00;99.90
3678;DHT22;1855;50.934;6.958;2024-02-15T10:26:48;13.10;99.90
3678;DHT22;1855;50.934;6.958;2024-02-15T10:29:15;13.00;99.90
3678;DHT22;1855;50.934;6.958;2024-02-15T10:31:53;13.00;99.90
3678;DHT22;1855;50.934;6.958;2024-02-15T10:34:21;13.00;99.90
3678;DHT22;1855;50.934;6.958;2024-02-15T10:36:48;13.00;99.90
3678;DHT22;1855;50.934;6.958;2024-02-15T10:39:16;13.10;99.90
3678;DHT22;1855;50.934;6.958;2024-02-15T10:41:46;13.20;99.90
3678;DHT22;1855;50.934;6.958;2024-02-15T10:44:15;13.30;99.90
3678;DHT22;1855;50.934;6.958;2024-02-15T10:46:44;13.30;99.90
3678;DHT22;1855;50.934;6.958;2024-02-15T10:49:13;13.40;99.90
3678;DHT22;1855;50.934;6.958;2024-02-15T10:51:43;13.50;99.90
3678;DHT22;1855;50.934;6.958;2024-02-15T10:54:12;13.50;99.90
3678;DHT22;1855;50.934;6.958;2024-02-15T10:56:43;13.50;99.90
3678;DHT22;1855;50.934;6.958;2024-02-15T10:59:16;13.60;99.90
3678;DHT22;1855;50.934;6.958;2024-02-15T11:01:45;13.60;99.90
3678;DHT22;1855;50.934;6.958;2024-02-15T11:04:15;13.60;99.90
3678;DHT22;1855;50.934;6.958;2024-02-15T11:06:48;13.70;99.90
3678;DHT22;1855;50.934;6.958;2024-02-15T11:09:16;13.70;99.90
3678;DHT22;1855;50.934;6.958;2024-02-15T11:11:45;13.70;99.90
3678;DHT22;1855;50.934;6.958;2024-02-15T11:14:28;13.80;99.90
3678;DHT22;1855;50.934;6.958;2024-02-15T11:16:55;13.90;99.90
3678;DHT22;1855;50.934;6.958;2024-02-15T11:19:43;14.00;99.90
3678;DHT22;1855;50.934;6.958;2024-02-15T11:22:13;14.10;99.90
3678;DHT22;1855;50.934;6.958;2024-02-15T11:24:46;14.10;99.90
3678;DHT22;1855;50.934;6.958;2024-02-15T11:27:24;14.20;99.90
3678;DHT22;1855;50.934;6.958;2024-02-15T11:29:52;14.30;99.90
3678;DHT22;1855;50.934;6.958;2024-02-15T11:32:37;14.40;99.90
3678;DHT22;1855;50.934;6.958;2024-02-15T11:35:07;14.50;99.90
3678;DHT22;1855;50.934;6.958;2024-02-15T11:37:55;14.60;99.90
3678;DHT22;1855;50.934;6.958;2024-02-15T11:40:26;14.60;99.90
3678;DHT22;1855;50.934;6.958;2024-02-15T11:42:55;14.50;99.90
3678;DHT22;1855;50.934;6.958;2024-02-15T11:45:24;14.60;99.90
3678;DHT22;1855;50.934;6.958;2024-02-15T11:47:52;14.60;99.90
3678;DHT22;1855;50.934;6.958;2024-02-15T11:50:21;14.70;99.90
3678;DHT22;1855;50.934;6.958;2024-02-15T11:52:49;14.60;99.90
3678;DHT22;1855;50.934;6.958;2024-02-15T11:55:19;14.60;99.90
3678;DHT22;1855;50.934;6.958;2024-02-15T11:57:56;14.70;99.90
3678;DHT22;1855;50.934;6.958;2024-02-15T12:00:30;14.90;99.90
3678;DHT22;1855;50.934;6.958;2024-02-15T12:03:15;15.10;99.90
3678;DHT22;1855;50.934;6.958;2024-02-15T12:05:57;15.20;99.90
3678;DHT22;1855;50.934;6.958;2024-02-15T12:08:44;15.30;99.90
3678;DHT22;1855;50.934;6.958;2024-02-15T12:11:28;15.40;99.90
3678;DHT22;1855;50.934;6.958;2024-02-15T12:14:12;15.50;99.90
3678;DHT22;1855;50.934;6.958;2024-02-15T12:17:01;15.60;99.90
3678;DHT22;1855;50.934;6.958;2024-02-15T12:19:47;15.60;99.90
3678;DHT22;1855;50.934;6.958;2024-02-15T12:22:17;15.60;99.90
3678;DHT22;1855;50.934;6.958;2024-02-15T12:24:52;15.60;99.90
3678;DHT22;1855;50.934;6.958;2024-02-15T12:27:19;15.70;99.90
3678;DHT22;1855;50.934;6.958;2024-02-15T12:29:51;15.70;99.90
3678;DHT22;1855;50.934;6.958;2024-02-15T12:32:20;15.80;99.90
3678;DHT22;1855;50.934;6.958;2024-02-15T12:34:47;16.00;99.90
3678;DHT22;1855;50.934;6.958;2024-02-15T12:37:17;16.00;99.90
3678;DHT22;1855;50.934;6.958;2024-02-15T12:39:46;16.00;99.90
3678;DHT22;1855;50.934;6.958;2024-02-15T12:42:13;16.00;99.90
3678;DHT22;1855;50.934;6.958;2024-02-15T12:44:43;16.00;99.90
3678;DHT22;1855;50.934;6.958;2024-02-15T12:47:18;16.00;99.90
3678;DHT22;1855;50.934;6.958;2024-02-15T12:49:45;15.90;99.90
3678;DHT22;1855;50.934;6.958;2024-02-15T12:52:36;15.90;99.90
3678;DHT22;1855;50.934;6.958;2024-02-15T12:55:07;15.90;99.90
3678;DHT22;1855;50.934;6.958;2024-02-15T12:57:35;15.80;99.90
3678;DHT22;1855;50.934;6.958;2024-02-15T13:00:02;15.80;99.90
3678;DHT22;1855;50.934;6.958;2024-02-15T13:02:36;15.80;99.90
3678;DHT22;1855;50.934;6.958;2024-02-15T13:05:03;15.80;99.90
3678;DHT22;1855;50.934;6.958;2024-02-15T13:07:30;15.80;99.90
3678;DHT22;1855;50.934;6.958;2024-02-15T13:09:58;15.70;99.90
3678;DHT22;1855;50.934;6.958;2024-02-15T13:12:25;15.70;99.90
3678;DHT22;1855;50.934;6.958;2024-02-15T13:14:53;15.70;99.90
3678;DHT22;1855;50.934;6.958;2024-02-15T13:17:20;15.60;99.90
3678;DHT22;1855;50.934;6.958;2024-02-15T13:19:47;15.60;99.90
3678;DHT22;1855;50.934;6.958;2024-02-15T13:22:14;15.60;99.90
3678;DHT22;1855;50.934;6.958;2024-02-15T13:24:42;15.50;99.90
3678;DHT22;1855;50.934;6.958;2024-02-15T13:27:11;15.50;99.90
3678;DHT22;1855;50.934;6.958;2024-02-15T13:29:37;15.40;99.90
3678;DHT22;1855;50.934;6.958;2024-02-15T13:32:05;15.40;99.90
3678;DHT22;1855;50.934;6.958;2024-02-15T13:34:32;15.40;99.90
3678;DHT22;1855;50.934;6.958;2024-02-15T13:36:59;15.40;99.90
3678;DHT22;1855;50.934;6.958;2024-02-15T13:39:29;15.30;99.90
3678;DHT22;1855;50.934;6.958;2024-02-15T13:41:59;15.30;99.90
3678;DHT22;1855;50.934;6.958;2024-02-15T13:44:28;15.30;99.90
3678;DHT22;1855;50.934;6.958;2024-02-15T13:46:56;15.30;99.90
3678;DHT22;1855;50.934;6.958;2024-02-15T13:49:22;15.40;99.90
3678;DHT22;1855;50.934;6.958;2024-02-15T13:51:49;15.40;99.90
3678;DHT22;1855;50.934;6.958;2024-02-15T13:54:17;15.50;99.90
3678;DHT22;1855;50.934;6.958;2024-02-15T13:56:44;15.60;99.90
3678;DHT22;1855;50.934;6.958;2024-02-15T13:59:10;15.80;99.90
3678;DHT22;1855;50.934;6.958;2024-02-15T14:01:39;15.90;99.90
3678;DHT22;1855;50.934;6.958;2024-02-15T14:04:11;16.00;99.90
3678;DHT22;1855;50.934;6.958;2024-02-15T14:06:37;16.00;99.90
3678;DHT22;1855;50.934;6.958;2024-02-15T14:09:05;16.00;99.90
3678;DHT22;1855;50.934;6.958;2024-02-15T14:11:32;16.00;99.90
3678;DHT22;1855;50.934;6.958;2024-02-15T14:13:59;15.90;99.90
3678;DHT22;1855;50.934;6.958;2024-02-15T14:16:26;15.90;99.90
3678;DHT22;1855;50.934;6.958;2024-02-15T14:18:55;15.90;99.90
3678;DHT22;1855;50.934;6.958;2024-02-15T14:21:23;15.80;99.90
3678;DHT22;1855;50.934;6.958;2024-02-15T14:23:51;15.80;99.90
3678;DHT22;1855;50.934;6.958;2024-02-15T14:26:17;15.70;99.90
3678;DHT22;1855;50.934;6.958;2024-02-15T14:28:44;15.80;99.90
3678;DHT22;1855;50.934;6.958;2024-02-15T14:31:11;15.80;99.90
3678;DHT22;1855;50.934;6.958;2024-02-15T14:33:57;15.80;99.90
3678;DHT22;1855;50.934;6.958;2024-02-15T14:36:25;15.90;99.90
3678;DHT22;1855;50.934;6.958;2024-02-15T14:38:52;15.80;99.90
3678;DHT22;1855;50.934;6.958;2024-02-15T14:41:20;15.80;99.90
3678;DHT22;1855;50.934;6.958;2024-02-15T14:43:48;15.80;99.90
3678;DHT22;1855;50.934;6.958;2024-02-15T14:46:16;15.80;99.90
3678;DHT22;1855;50.934;6.958;2024-02-15T14:48:42;15.80;99.90
3678;DHT22;1855;50.934;6.958;2024-02-15T14:51:16;15.80;99.90
3678;DHT22;1855;50.934;6.958;2024-02-15T14:53:44;15.80;99.90
3678;DHT22;1855;50.934;6.958;2024-02-15T14:56:11;15.80;99.90
3678;DHT22;1855;50.934;6.958;2024-02-15T14:58:38;15.70;99.90
3678;DHT22;1855;50.934;6.958;2024-02-15T15:01:06;15.70;99.90
3678;DHT22;1855;50.934;6.958;2024-02-15T15:03:33;15.70;99.90
3678;DHT22;1855;50.934;6.958;2024-02-15T15:06:07;15.70;99.90
3678;DHT22;1855;50.934;6.958;2024-02-15T15:08:52;15.70;99.90
3678;DHT22;1855;50.934;6.958;2024-02-15T15:11:36;15.70;99.90
3678;DHT22;1855;50.934;6.958;2024-02-15T15:14:21;15.60;99.90
3678;DHT22;1855;50.934;6.958;2024-02-15T15:16:48;15.70;99.90
3678;DHT22;1855;50.934;6.958;2024-02-15T15:19:15;15.60;99.90
3678;DHT22;1855;50.934;6.958;2024-02-15T15:21:42;15.60;99.90
3678;DHT22;1855;50.934;6.958;2024-02-15T15:24:10;15.60;99.90
3678;DHT22;1855;50.934;6.958;2024-02-15T15:26:37;15.60;99.90
3678;DHT22;1855;50.934;6.958;2024-02-15T15:29:03;15.50;99.90
3678;DHT22;1855;50.934;6.958;2024-02-15T15:31:32;15.50;99.90
3678;DHT22;1855;50.934;6.958;2024-02-15T15:34:00;15.50;99.90
3678;DHT22;1855;50.934;6.958;2024-02-15T15:36:27;15.50;99.90
3678;DHT22;1855;50.934;6.958;2024-02-15T15:38:54;15.40;99.90
3678;DHT22;1855;50.934;6.958;2024-02-15T15:41:22;15.40;99.90
3678;DHT22;1855;50.934;6.958;2024-02-15T15:43:49;15.40;99.90
3678;DHT22;1855;50.934;6.958;2024-02-15T15:46:16;15.40;99.90
3678;DHT22;1855;50.934;6.958;2024-02-15T15:48:43;15.40;99.90
3678;DHT22;1855;50.934;6.958;2024-02-15T15:51:09;15.40;99.90
3678;DHT22;1855;50.934;6.958;2024-02-15T15:53:36;15.30;99.90
3678;DHT22;1855;50.934;6.958;2024-02-15T15:56:05;15.30;99.90
3678;DHT22;1855;50.934;6.958;2024-02-15T15:58:33;15.20;99.90
3678;DHT22;1855;50.934;6.958;2024-02-15T16:01:00;15.20;99.90
3678;DHT22;1855;50.934;6.958;2024-02-15T16:03:27;15.20;99.90
3678;DHT22;1855;50.934;6.958;2024-02-15T16:05:54;15.30;99.90
3678;DHT22;1855;50.934;6.958;2024-02-15T16:08:21;15.30;99.90
3678;DHT22;1855;50.934;6.958;2024-02-15T16:10:48;15.40;99.90
3678;DHT22;1855;50.934;6.958;2024-02-15T16:13:14;15.40;99.90
3678;DHT22;1855;50.934;6.958;2024-02-15T16:15:42;15.40;99.90
3678;DHT22;1855;50.934;6.958;2024-02-15T16:18:11;15.30;99.90
3678;DHT22;1855;50.934;6.958;2024-02-15T16:20:39;15.30;99.90
3678;DHT22;1855;50.934;6.958;2024-02-15T16:23:06;15.20;99.90
3678;DHT22;1855;50.934;6.958;2024-02-15T16:25:33;15.10;99.90
3678;DHT22;1855;50.934;6.958;2024-02-15T16:28:00;15.10;99.90
3678;DHT22;1855;50.934;6.958;2024-02-15T16:30:27;15.10;99.90
3678;DHT22;1855;50.934;6.958;2024-02-15T16:32:55;15.00;99.90
3678;DHT22;1855;50.934;6.958;2024-02-15T16:35:22;14.90;99.90
3678;DHT22;1855;50.934;6.958;2024-02-15T16:37:49;14.90;99.90
3678;DHT22;1855;50.934;6.958;2024-02-15T16:40:16;14.90;99.90
3678;DHT22;1855;50.934;6.958;2024-02-15T16:42:44;14.80;99.90
3678;DHT22;1855;50.934;6.958;2024-02-15T16:45:13;14.70;99.90
3678;DHT22;1855;50.934;6.958;2024-02-15T16:47:42;14.70;99.90
3678;DHT22;1855;50.934;6.958;2024-02-15T16:50:16;14.70;99.90
3678;DHT22;1855;50.934;6.958;2024-02-15T16:52:44;14.60;99.90
3678;DHT22;1855;50.934;6.958;2024-02-15T16:55:10;14.60;99.90
3678;DHT22;1855;50.934;6.958;2024-02-15T16:57:38;14.50;99.90
3678;DHT22;1855;50.934;6.958;2024-02-15T17:00:05;14.50;99.90
3678;DHT22;1855;50.934;6.958;2024-02-15T17:02:33;14.50;99.90
3678;DHT22;1855;50.934;6.958;2024-02-15T17:04:59;14.40;99.90
3678;DHT22;1855;50.934;6.958;2024-02-15T17:07:28;14.40;99.90
3678;DHT22;1855;50.934;6.958;2024-02-15T17:09:55;14.40;99.90
3678;DHT22;1855;50.934;6.958;2024-02-15T17:12:21;14.30;99.90
3678;DHT22;1855;50.934;6.958;2024-02-15T17:14:48;14.30;99.90
3678;DHT22;1855;50.934;6.958;2024-02-15T17:17:15;14.20;99.90
3678;DHT22;1855;50.934;6.958;2024-02-15T17:19:42;14.20;99.90
3678;DHT22;1855;50.934;6.958;2024-02-15T17:22:11;14.10;99.90
3678;DHT22;1855;50.934;6.958;2024-02-15T17:24:41;14.10;99.90
3678;DHT22;1855;50.934;6.958;2024-02-15T17:27:08;14.10;99.90
3678;DHT22;1855;50.934;6.958;2024-02-15T17:29:35;14.10;99.90
3678;DHT22;1855;50.934;6.958;2024-02-15T17:32:02;14.00;99.90
3678;DHT22;1855;50.934;6.958;2024-02-15T17:34:29;14.00;99.90
3678;DHT22;1855;50.934;6.958;2024-02-15T17:36:56;14.00;99.90
3678;DHT22;1855;50.934;6.958;2024-02-15T17:39:23;14.00;99.90
3678;DHT22;1855;50.934;6.958;2024-02-15T17:41:52;13.90;99.90
3678;DHT22;1855;50.934;6.958;2024-02-15T17:44:18;13.90;99.90
3678;DHT22;1855;50.934;6.958;2024-02-15T17:46:45;13.90;99.90
3678;DHT22;1855;50.934;6.958;2024-02-15T17:49:12;13.90;99.90
3678;DHT22;1855;50.934;6.958;2024-02-15T17:51:38;13.80;99.90
3678;DHT22;1855;50.934;6.958;2024-02-15T17:54:07;13.70;99.90
3678;DHT22;1855;50.934;6.958;2024-02-15T17:56:34;13.70;99.90
3678;DHT22;1855;50.934;6.958;2024-02-15T17:59:02;13.70;99.90
3678;DHT22;1855;50.934;6.958;2024-02-15T18:01:29;13.70;99.90
3678;DHT22;1855;50.934;6.958;2024-02-15T18:03:57;13.70;99.90
3678;DHT22;1855;50.934;6.958;2024-02-15T18:06:24;13.70;99.90
3678;DHT22;1855;50.934;6.958;2024-02-15T18:08:51;13.70;99.90
3678;DHT22;1855;50.934;6.958;2024-02-15T18:11:18;13.70;99.90
3678;DHT22;1855;50.934;6.958;2024-02-15T18:13:44;13.70;99.90
3678;DHT22;1855;50.934;6.958;2024-02-15T18:16:13;13.70;99.90
3678;DHT22;1855;50.934;6.958;2024-02-15T18:18:42;13.60;99.90
3678;DHT22;1855;50.934;6.958;2024-02-15T18:21:08;13.70;99.90
3678;DHT22;1855;50.934;6.958;2024-02-15T18:23:36;13.60;99.90
3678;DHT22;1855;50.934;6.958;2024-02-15T18:26:03;13.60;99.90
3678;DHT22;1855;50.934;6.958;2024-02-15T18:28:30;13.60;99.90
3678;DHT22;1855;50.934;6.958;2024-02-15T18:30:57;13.60;99.90
3678;DHT22;1855;50.934;6.958;2024-02-15T18:33:26;13.60;99.90
3678;DHT22;1855;50.934;6.958;2024-02-15T18:35:54;13.60;99.90
3678;DHT22;1855;50.934;6.958;2024-02-15T18:38:22;13.60;99.90
3678;DHT22;1855;50.934;6.958;2024-02-15T18:40:52;13.60;99.90
3678;DHT22;1855;50.934;6.958;2024-02-15T18:43:22;13.50;99.90
3678;DHT22;1855;50.934;6.958;2024-02-15T18:45:49;13.50;99.90
3678;DHT22;1855;50.934;6.958;2024-02-15T18:48:16;13.50;99.90
3678;DHT22;1855;50.934;6.958;2024-02-15T18:50:45;13.50;99.90
3678;DHT22;1855;50.934;6.958;2024-02-15T18:53:11;13.50;99.90
3678;DHT22;1855;50.934;6.958;2024-02-15T18:55:40;13.50;99.90
3678;DHT22;1855;50.934;6.958;2024-02-15T18:58:07;13.50;99.90
3678;DHT22;1855;50.934;6.958;2024-02-15T19:00:34;13.50;99.90
3678;DHT22;1855;50.934;6.958;2024-02-15T19:03:04;13.40;99.90
3678;DHT22;1855;50.934;6.958;2024-02-15T19:05:30;13.40;99.90
3678;DHT22;1855;50.934;6.958;2024-02-15T19:07:58;13.40;99.90
3678;DHT22;1855;50.934;6.958;2024-02-15T19:10:26;13.40;99.90
3678;DHT22;1855;50.934;6.958;2024-02-15T19:12:53;13.40;99.90
3678;DHT22;1855;50.934;6.958;2024-02-15T19:15:20;13.40;99.90
3678;DHT22;1855;50.934;6.958;2024-02-15T19:17:48;13.40;99.90
3678;DHT22;1855;50.934;6.958;2024-02-15T19:20:14;13.40;99.90
3678;DHT22;1855;50.934;6.958;2024-02-15T19:22:41;13.30;99.90
3678;DHT22;1855;50.934;6.958;2024-02-15T19:25:12;13.30;99.90
3678;DHT22;1855;50.934;6.958;2024-02-15T19:27:43;13.30;99.90
3678;DHT22;1855;50.934;6.958;2024-02-15T19:30:11;13.30;99.90
3678;DHT22;1855;50.934;6.958;2024-02-15T19:32:38;13.30;99.90
3678;DHT22;1855;50.934;6.958;2024-02-15T19:35:05;13.20;99.90
3678;DHT22;1855;50.934;6.958;2024-02-15T19:37:32;13.20;99.90
3678;DHT22;1855;50.934;6.958;2024-02-15T19:40:00;13.20;99.90
3678;DHT22;1855;50.934;6.958;2024-02-15T19:42:30;13.10;99.90
3678;DHT22;1855;50.934;6.958;2024-02-15T19:44:57;13.10;99.90
3678;DHT22;1855;50.934;6.958;2024-02-15T19:47:24;13.10;99.90
3678;DHT22;1855;50.934;6.958;2024-02-15T19:49:51;13.10;99.90
3678;DHT22;1855;50.934;6.958;2024-02-15T19:52:18;13.10;99.90
3678;DHT22;1855;50.934;6.958;2024-02-15T19:54:45;13.10;99.90
3678;DHT22;1855;50.934;6.958;2024-02-15T19:57:12;13.10;99.90
3678;DHT22;1855;50.934;6.958;2024-02-15T19:59:40;13.10;99.90
3678;DHT22;1855;50.934;6.958;2024-02-15T20:02:07;13.10;99.90
3678;DHT22;1855;50.934;6.958;2024-02-15T20:04:33;13.10;99.90
3678;DHT22;1855;50.934;6.958;2024-02-15T20:07:02;13.10;99.90
3678;DHT22;1855;50.934;6.958;2024-02-15T20:09:29;13.10;99.90
3678;DHT22;1855;50.934;6.958;2024-02-15T20:11:56;13.10;99.90
3678;DHT22;1855;50.934;6.958;2024-02-15T20:14:23;13.10;99.90
3678;DHT22;1855;50.934;6.958;2024-02-15T20:16:55;13.00;99.90
3678;DHT22;1855;50.934;6.958;2024-02-15T20:19:22;13.00;99.90
3678;DHT22;1855;50.934;6.958;2024-02-15T20:21:51;13.00;99.90
3678;DHT22;1855;50.934;6.958;2024-02-15T20:24:18;13.00;99.90
3678;DHT22;1855;50.934;6.958;2024-02-15T20:26:44;12.90;99.90
3678;DHT22;1855;50.934;6.958;2024-02-15T20:29:13;12.90;99.90
3678;DHT22;1855;50.934;6.958;2024-02-15T20:31:43;12.90;99.90
3678;DHT22;1855;50.934;6.958;2024-02-15T20:34:11;12.90;99.90
3678;DHT22;1855;50.934;6.958;2024-02-15T20:36:38;12.90;99.90
3678;DHT22;1855;50.934;6.958;2024-02-15T20:39:05;12.90;99.90
3678;DHT22;1855;50.934;6.958;2024-02-15T20:41:32;12.90;99.90
3678;DHT22;1855;50.934;6.958;2024-02-15T20:43:59;12.90;99.90
3678;DHT22;1855;50.934;6.958;2024-02-15T20:46:27;12.90;99.90
3678;DHT22;1855;50.934;6.958;2024-02-15T20:48:54;12.90;99.90
3678;DHT22;1855;50.934;6.958;2024-02-15T20:51:22;13.00;99.90
3678;DHT22;1855;50.934;6.958;2024-02-15T20:53:50;13.00;99.90
3678;DHT22;1855;50.934;6.958;2024-02-15T20:56:19;12.90;99.90
3678;DHT22;1855;50.934;6.958;2024-02-15T20:58:46;12.90;99.90
3678;DHT22;1855;50.934;6.958;2024-02-15T21:01:13;12.90;99.90
3678;DHT22;1855;50.934;6.958;2024-02-15T21:03:41;12.90;99.90
3678;DHT22;1855;50.934;6.958;2024-02-15T21:06:14;12.90;99.90
3678;DHT22;1855;50.934;6.958;2024-02-15T21:08:42;12.90;99.90
3678;DHT22;1855;50.934;6.958;2024-02-15T21:11:09;12.90;99.90
3678;DHT22;1855;50.934;6.958;2024-02-15T21:13:36;12.80;99.90
3678;DHT22;1855;50.934;6.958;2024-02-15T21:16:07;12.80;99.90
3678;DHT22;1855;50.934;6.958;2024-02-15T21:18:34;12.80;99.90
3678;DHT22;1855;50.934;6.958;2024-02-15T21:21:01;12.80;99.90
3678;DHT22;1855;50.934;6.958;2024-02-15T21:23:31;12.80;99.90
3678;DHT22;1855;50.934;6.958;2024-02-15T21:26:00;12.80;99.90
3678;DHT22;1855;50.934;6.958;2024-02-15T21:28:29;12.80;99.90
3678;DHT22;1855;50.934;6.958;2024-02-15T21:30:56;12.70;99.90
3678;DHT22;1855;50.934;6.958;2024-02-15T21:33:23;12.70;99.90
3678;DHT22;1855;50.934;6.958;2024-02-15T21:35:50;12.70;99.90
3678;DHT22;1855;50.934;6.958;2024-02-15T21:38:17;12.70;99.90
3678;DHT22;1855;50.934;6.958;2024-02-15T21:40:44;12.70;99.90